Lynn, Nebraska
Current Conditions -  °F | °C
As of 4:53 AM on Friday 31 Oct 2014 (Local Time) from KHSI Reporting Station
Overcast Overcast  
Wind Chill: -4°   Ceiling: 2100
Heat Index:   Visibility: 10mi
Dew Point: -3°   Wind: 13mph
Humidity: 73%   Direction: 30°NNE
Pressure: 30.49"   Gusts: NA
Location:  40.4815°N, 97.9942°W
Report Text: KHSI 310953Z AUTO 03011KT 10SM OVC021 01/M03 A3049 RMK AO2 SLP330 T00111033
Loading
Personal Weather Stations






























Interactive Weather Map
Tropical Storm Tracking
New forecast layout! Learn more

10-Day Weather Forecast

Advertisements
Track Severe Weather on mobile